sensor_id;sensor_type;location;lat;lon;timestamp;P1;durP1;ratioP1;P2;durP2;ratioP2
45676;SDS011;31390;51.186;6.830;2022-11-24T00:01:10;39.97;;;16.13;;
45676;SDS011;31390;51.186;6.830;2022-11-24T00:03:37;21.75;;;9.52;;
45676;SDS011;31390;51.186;6.830;2022-11-24T00:06:04;23.92;;;10.43;;
45676;SDS011;31390;51.186;6.830;2022-11-24T00:08:33;32.60;;;13.93;;
45676;SDS011;31390;51.186;6.830;2022-11-24T00:11:06;27.85;;;12.45;;
45676;SDS011;31390;51.186;6.830;2022-11-24T00:13:34;28.77;;;10.63;;
45676;SDS011;31390;51.186;6.830;2022-11-24T00:16:04;21.17;;;9.60;;
45676;SDS011;31390;51.186;6.830;2022-11-24T00:18:31;24.23;;;10.32;;
45676;SDS011;31390;51.186;6.830;2022-11-24T00:20:57;26.17;;;9.65;;
45676;SDS011;31390;51.186;6.830;2022-11-24T00:23:24;40.47;;;15.30;;
45676;SDS011;31390;51.186;6.830;2022-11-24T00:25:50;23.50;;;7.32;;
45676;SDS011;31390;51.186;6.830;2022-11-24T00:28:17;32.72;;;12.02;;
45676;SDS011;31390;51.186;6.830;2022-11-24T00:30:43;23.83;;;8.35;;
45676;SDS011;31390;51.186;6.830;2022-11-24T00:33:10;32.28;;;10.18;;
45676;SDS011;31390;51.186;6.830;2022-11-24T00:35:37;34.67;;;11.50;;
45676;SDS011;31390;51.186;6.830;2022-11-24T00:38:03;31.58;;;10.95;;
45676;SDS011;31390;51.186;6.830;2022-11-24T00:40:29;29.02;;;10.60;;
45676;SDS011;31390;51.186;6.830;2022-11-24T00:43:00;30.42;;;10.32;;
45676;SDS011;31390;51.186;6.830;2022-11-24T00:45:29;24.75;;;9.68;;
45676;SDS011;31390;51.186;6.830;2022-11-24T00:47:56;34.95;;;12.07;;
45676;SDS011;31390;51.186;6.830;2022-11-24T00:50:22;29.27;;;11.70;;
45676;SDS011;31390;51.186;6.830;2022-11-24T00:52:49;25.88;;;9.30;;
45676;SDS011;31390;51.186;6.830;2022-11-24T00:55:15;45.22;;;12.63;;
45676;SDS011;31390;51.186;6.830;2022-11-24T00:57:42;43.75;;;12.85;;
45676;SDS011;31390;51.186;6.830;2022-11-24T01:00:08;34.35;;;10.23;;
45676;SDS011;31390;51.186;6.830;2022-11-24T01:02:35;52.10;;;14.73;;
45676;SDS011;31390;51.186;6.830;2022-11-24T01:05:01;26.98;;;10.05;;
45676;SDS011;31390;51.186;6.830;2022-11-24T01:07:29;23.10;;;8.75;;
45676;SDS011;31390;51.186;6.830;2022-11-24T01:09:55;28.58;;;8.70;;
45676;SDS011;31390;51.186;6.830;2022-11-24T01:12:22;29.13;;;9.00;;
45676;SDS011;31390;51.186;6.830;2022-11-24T01:14:48;27.77;;;9.55;;
45676;SDS011;31390;51.186;6.830;2022-11-24T01:17:15;26.33;;;9.00;;
45676;SDS011;31390;51.186;6.830;2022-11-24T01:19:41;27.13;;;9.20;;
45676;SDS011;31390;51.186;6.830;2022-11-24T01:22:08;22.95;;;9.05;;
45676;SDS011;31390;51.186;6.830;2022-11-24T01:24:35;29.63;;;9.48;;
45676;SDS011;31390;51.186;6.830;2022-11-24T01:27:01;27.73;;;7.90;;
45676;SDS011;31390;51.186;6.830;2022-11-24T01:29:28;28.60;;;9.23;;
45676;SDS011;31390;51.186;6.830;2022-11-24T01:31:54;27.20;;;8.90;;
45676;SDS011;31390;51.186;6.830;2022-11-24T01:34:21;27.73;;;8.85;;
45676;SDS011;31390;51.186;6.830;2022-11-24T01:36:49;26.05;;;8.57;;
45676;SDS011;31390;51.186;6.830;2022-11-24T01:39:16;21.80;;;8.80;;
45676;SDS011;31390;51.186;6.830;2022-11-24T01:41:42;20.65;;;8.13;;
45676;SDS011;31390;51.186;6.830;2022-11-24T01:44:23;22.58;;;8.00;;
45676;SDS011;31390;51.186;6.830;2022-11-24T01:46:59;24.30;;;7.30;;
45676;SDS011;31390;51.186;6.830;2022-11-24T01:49:38;24.85;;;7.30;;
45676;SDS011;31390;51.186;6.830;2022-11-24T01:52:10;28.23;;;7.43;;
45676;SDS011;31390;51.186;6.830;2022-11-24T01:54:40;32.65;;;9.18;;
45676;SDS011;31390;51.186;6.830;2022-11-24T01:57:10;34.75;;;10.25;;
45676;SDS011;31390;51.186;6.830;2022-11-24T01:59:38;22.42;;;7.65;;
45676;SDS011;31390;51.186;6.830;2022-11-24T02:02:05;23.38;;;6.07;;
45676;SDS011;31390;51.186;6.830;2022-11-24T02:04:31;26.60;;;7.97;;
45676;SDS011;31390;51.186;6.830;2022-11-24T02:06:59;34.90;;;9.27;;
45676;SDS011;31390;51.186;6.830;2022-11-24T02:09:50;30.40;;;7.30;;
45676;SDS011;31390;51.186;6.830;2022-11-24T02:12:13;22.55;;;6.57;;
45676;SDS011;31390;51.186;6.830;2022-11-24T02:14:40;28.50;;;7.05;;
45676;SDS011;31390;51.186;6.830;2022-11-24T02:17:07;22.33;;;6.78;;
45676;SDS011;31390;51.186;6.830;2022-11-24T02:22:00;32.90;;;7.55;;
45676;SDS011;31390;51.186;6.830;2022-11-24T02:24:33;24.25;;;6.63;;
45676;SDS011;31390;51.186;6.830;2022-11-24T02:27:01;34.70;;;8.00;;
45676;SDS011;31390;51.186;6.830;2022-11-24T02:29:28;26.58;;;6.32;;
45676;SDS011;31390;51.186;6.830;2022-11-24T02:31:57;20.58;;;5.57;;
45676;SDS011;31390;51.186;6.830;2022-11-24T02:34:24;20.35;;;5.95;;
45676;SDS011;31390;51.186;6.830;2022-11-24T02:36:51;36.13;;;8.35;;
45676;SDS011;31390;51.186;6.830;2022-11-24T02:39:18;20.27;;;6.03;;
45676;SDS011;31390;51.186;6.830;2022-11-24T02:41:55;31.92;;;7.72;;
45676;SDS011;31390;51.186;6.830;2022-11-24T02:44:23;23.00;;;6.03;;
45676;SDS011;31390;51.186;6.830;2022-11-24T02:47:00;18.38;;;6.05;;
45676;SDS011;31390;51.186;6.830;2022-11-24T02:49:26;27.77;;;6.25;;
45676;SDS011;31390;51.186;6.830;2022-11-24T02:51:53;36.75;;;8.10;;
45676;SDS011;31390;51.186;6.830;2022-11-24T02:54:19;21.35;;;5.75;;
45676;SDS011;31390;51.186;6.830;2022-11-24T02:56:46;28.73;;;7.68;;
45676;SDS011;31390;51.186;6.830;2022-11-24T02:59:12;20.63;;;5.32;;
45676;SDS011;31390;51.186;6.830;2022-11-24T03:01:39;25.50;;;7.10;;
45676;SDS011;31390;51.186;6.830;2022-11-24T03:04:06;32.03;;;8.75;;
45676;SDS011;31390;51.186;6.830;2022-11-24T03:06:32;18.13;;;5.57;;
45676;SDS011;31390;51.186;6.830;2022-11-24T03:08:58;23.63;;;7.15;;
45676;SDS011;31390;51.186;6.830;2022-11-24T03:11:25;17.08;;;6.15;;
45676;SDS011;31390;51.186;6.830;2022-11-24T03:13:51;21.95;;;5.95;;
45676;SDS011;31390;51.186;6.830;2022-11-24T03:16:18;23.70;;;6.47;;
45676;SDS011;31390;51.186;6.830;2022-11-24T03:18:44;19.77;;;6.35;;
45676;SDS011;31390;51.186;6.830;2022-11-24T03:21:13;26.20;;;6.47;;
45676;SDS011;31390;51.186;6.830;2022-11-24T03:23:39;26.17;;;6.90;;
45676;SDS011;31390;51.186;6.830;2022-11-24T03:26:07;17.95;;;5.55;;
45676;SDS011;31390;51.186;6.830;2022-11-24T03:28:34;21.30;;;6.80;;
45676;SDS011;31390;51.186;6.830;2022-11-24T03:31:00;18.42;;;5.53;;
45676;SDS011;31390;51.186;6.830;2022-11-24T03:33:28;19.63;;;6.30;;
45676;SDS011;31390;51.186;6.830;2022-11-24T03:35:54;21.70;;;6.85;;
45676;SDS011;31390;51.186;6.830;2022-11-24T03:38:21;21.13;;;6.25;;
45676;SDS011;31390;51.186;6.830;2022-11-24T03:40:47;21.08;;;5.55;;
45676;SDS011;31390;51.186;6.830;2022-11-24T03:43:14;27.90;;;7.40;;
45676;SDS011;31390;51.186;6.830;2022-11-24T03:45:40;24.70;;;6.90;;
45676;SDS011;31390;51.186;6.830;2022-11-24T03:48:12;18.50;;;6.07;;
45676;SDS011;31390;51.186;6.830;2022-11-24T03:50:38;24.17;;;6.47;;
45676;SDS011;31390;51.186;6.830;2022-11-24T03:53:05;25.02;;;6.03;;
45676;SDS011;31390;51.186;6.830;2022-11-24T03:55:31;26.65;;;8.13;;
45676;SDS011;31390;51.186;6.830;2022-11-24T03:57:58;26.67;;;6.72;;
45676;SDS011;31390;51.186;6.830;2022-11-24T04:00:24;27.33;;;7.18;;
45676;SDS011;31390;51.186;6.830;2022-11-24T04:02:51;26.23;;;7.13;;
45676;SDS011;31390;51.186;6.830;2022-11-24T04:05:17;25.75;;;7.53;;
45676;SDS011;31390;51.186;6.830;2022-11-24T04:07:44;34.72;;;8.32;;
45676;SDS011;31390;51.186;6.830;2022-11-24T04:10:10;29.38;;;7.57;;
45676;SDS011;31390;51.186;6.830;2022-11-24T04:12:37;24.58;;;6.60;;
45676;SDS011;31390;51.186;6.830;2022-11-24T04:15:14;29.13;;;7.60;;
45676;SDS011;31390;51.186;6.830;2022-11-24T04:17:41;29.98;;;6.72;;
45676;SDS011;31390;51.186;6.830;2022-11-24T04:20:07;33.03;;;8.18;;
45676;SDS011;31390;51.186;6.830;2022-11-24T04:22:35;30.80;;;8.40;;
45676;SDS011;31390;51.186;6.830;2022-11-24T04:25:02;31.73;;;8.40;;
45676;SDS011;31390;51.186;6.830;2022-11-24T04:27:28;27.48;;;7.75;;
45676;SDS011;31390;51.186;6.830;2022-11-24T04:29:55;25.27;;;7.13;;
45676;SDS011;31390;51.186;6.830;2022-11-24T04:32:21;35.05;;;8.07;;
45676;SDS011;31390;51.186;6.830;2022-11-24T04:34:48;28.80;;;7.93;;
45676;SDS011;31390;51.186;6.830;2022-11-24T04:37:14;32.05;;;8.57;;
45676;SDS011;31390;51.186;6.830;2022-11-24T04:39:41;33.42;;;9.45;;
45676;SDS011;31390;51.186;6.830;2022-11-24T04:42:07;34.10;;;9.13;;
45676;SDS011;31390;51.186;6.830;2022-11-24T04:44:34;25.30;;;7.32;;
45676;SDS011;31390;51.186;6.830;2022-11-24T04:47:01;32.92;;;8.43;;
45676;SDS011;31390;51.186;6.830;2022-11-24T04:49:27;30.70;;;7.70;;
45676;SDS011;31390;51.186;6.830;2022-11-24T04:51:54;30.67;;;8.73;;
45676;SDS011;31390;51.186;6.830;2022-11-24T04:54:20;29.13;;;8.15;;
45676;SDS011;31390;51.186;6.830;2022-11-24T04:56:50;37.03;;;8.32;;
45676;SDS011;31390;51.186;6.830;2022-11-24T04:59:17;27.02;;;8.43;;
45676;SDS011;31390;51.186;6.830;2022-11-24T05:01:45;39.75;;;8.52;;
45676;SDS011;31390;51.186;6.830;2022-11-24T05:04:12;28.35;;;8.20;;
45676;SDS011;31390;51.186;6.830;2022-11-24T05:06:39;30.88;;;7.70;;
45676;SDS011;31390;51.186;6.830;2022-11-24T05:09:06;29.65;;;8.18;;
45676;SDS011;31390;51.186;6.830;2022-11-24T05:11:33;27.52;;;7.72;;
45676;SDS011;31390;51.186;6.830;2022-11-24T05:13:59;30.80;;;8.45;;
45676;SDS011;31390;51.186;6.830;2022-11-24T05:16:27;25.70;;;7.20;;
45676;SDS011;31390;51.186;6.830;2022-11-24T05:18:53;26.23;;;7.57;;
45676;SDS011;31390;51.186;6.830;2022-11-24T05:21:20;42.20;;;9.90;;
45676;SDS011;31390;51.186;6.830;2022-11-24T05:23:46;38.78;;;8.60;;
45676;SDS011;31390;51.186;6.830;2022-11-24T05:26:12;23.85;;;7.57;;
45676;SDS011;31390;51.186;6.830;2022-11-24T05:28:39;31.27;;;8.25;;
45676;SDS011;31390;51.186;6.830;2022-11-24T05:31:05;28.42;;;7.85;;
45676;SDS011;31390;51.186;6.830;2022-11-24T05:33:32;37.00;;;9.07;;
45676;SDS011;31390;51.186;6.830;2022-11-24T05:35:59;34.95;;;9.43;;
45676;SDS011;31390;51.186;6.830;2022-11-24T05:38:26;35.35;;;9.27;;
45676;SDS011;31390;51.186;6.830;2022-11-24T05:41:01;35.85;;;9.02;;
45676;SDS011;31390;51.186;6.830;2022-11-24T05:43:28;31.95;;;8.27;;
45676;SDS011;31390;51.186;6.830;2022-11-24T05:45:58;32.67;;;8.48;;
45676;SDS011;31390;51.186;6.830;2022-11-24T05:48:25;30.55;;;9.15;;
45676;SDS011;31390;51.186;6.830;2022-11-24T05:50:55;34.53;;;8.95;;
45676;SDS011;31390;51.186;6.830;2022-11-24T05:53:22;35.40;;;9.98;;
45676;SDS011;31390;51.186;6.830;2022-11-24T05:55:49;39.35;;;10.57;;
45676;SDS011;31390;51.186;6.830;2022-11-24T05:58:15;31.80;;;9.40;;
45676;SDS011;31390;51.186;6.830;2022-11-24T06:00:42;31.63;;;9.10;;
45676;SDS011;31390;51.186;6.830;2022-11-24T06:03:09;31.60;;;8.50;;
45676;SDS011;31390;51.186;6.830;2022-11-24T06:05:36;29.92;;;9.30;;
45676;SDS011;31390;51.186;6.830;2022-11-24T06:08:02;26.77;;;9.20;;
45676;SDS011;31390;51.186;6.830;2022-11-24T06:10:29;34.55;;;10.65;;
45676;SDS011;31390;51.186;6.830;2022-11-24T06:12:56;29.98;;;9.43;;
45676;SDS011;31390;51.186;6.830;2022-11-24T06:15:22;28.20;;;8.57;;
45676;SDS011;31390;51.186;6.830;2022-11-24T06:17:55;26.33;;;7.68;;
45676;SDS011;31390;51.186;6.830;2022-11-24T06:20:22;32.20;;;9.45;;
45676;SDS011;31390;51.186;6.830;2022-11-24T06:22:56;24.27;;;7.53;;
45676;SDS011;31390;51.186;6.830;2022-11-24T06:25:22;26.67;;;7.53;;
45676;SDS011;31390;51.186;6.830;2022-11-24T06:27:49;32.83;;;8.15;;
45676;SDS011;31390;51.186;6.830;2022-11-24T06:30:15;28.48;;;7.40;;
45676;SDS011;31390;51.186;6.830;2022-11-24T06:32:42;25.25;;;7.88;;
45676;SDS011;31390;51.186;6.830;2022-11-24T06:35:15;24.67;;;7.07;;
45676;SDS011;31390;51.186;6.830;2022-11-24T06:37:41;19.98;;;5.45;;
45676;SDS011;31390;51.186;6.830;2022-11-24T06:40:08;13.65;;;5.20;;
45676;SDS011;31390;51.186;6.830;2022-11-24T06:42:35;17.23;;;4.53;;
45676;SDS011;31390;51.186;6.830;2022-11-24T06:45:02;12.02;;;4.57;;
45676;SDS011;31390;51.186;6.830;2022-11-24T06:47:34;14.13;;;4.47;;
45676;SDS011;31390;51.186;6.830;2022-11-24T06:50:01;17.00;;;4.63;;
45676;SDS011;31390;51.186;6.830;2022-11-24T06:52:28;13.00;;;3.80;;
45676;SDS011;31390;51.186;6.830;2022-11-24T06:54:54;11.13;;;3.28;;
45676;SDS011;31390;51.186;6.830;2022-11-24T06:57:21;10.98;;;3.38;;
45676;SDS011;31390;51.186;6.830;2022-11-24T06:59:47;11.75;;;3.30;;
45676;SDS011;31390;51.186;6.830;2022-11-24T07:02:14;10.55;;;3.35;;
45676;SDS011;31390;51.186;6.830;2022-11-24T07:04:40;8.77;;;3.42;;
45676;SDS011;31390;51.186;6.830;2022-11-24T07:07:07;11.95;;;3.10;;
45676;SDS011;31390;51.186;6.830;2022-11-24T07:09:33;8.25;;;3.15;;
45676;SDS011;31390;51.186;6.830;2022-11-24T07:11:59;7.70;;;2.53;;
45676;SDS011;31390;51.186;6.830;2022-11-24T07:14:27;7.55;;;2.60;;
45676;SDS011;31390;51.186;6.830;2022-11-24T07:16:54;5.20;;;2.35;;
45676;SDS011;31390;51.186;6.830;2022-11-24T07:19:20;5.50;;;2.20;;
45676;SDS011;31390;51.186;6.830;2022-11-24T07:21:50;4.68;;;2.50;;
45676;SDS011;31390;51.186;6.830;2022-11-24T07:24:17;7.03;;;2.75;;
45676;SDS011;31390;51.186;6.830;2022-11-24T07:26:44;5.07;;;2.67;;
45676;SDS011;31390;51.186;6.830;2022-11-24T07:29:10;4.47;;;2.53;;
45676;SDS011;31390;51.186;6.830;2022-11-24T07:31:44;8.20;;;3.03;;
45676;SDS011;31390;51.186;6.830;2022-11-24T07:34:11;8.02;;;2.75;;
45676;SDS011;31390;51.186;6.830;2022-11-24T07:36:40;6.75;;;2.20;;
45676;SDS011;31390;51.186;6.830;2022-11-24T07:39:06;4.35;;;2.50;;
45676;SDS011;31390;51.186;6.830;2022-11-24T07:41:33;6.55;;;2.60;;
45676;SDS011;31390;51.186;6.830;2022-11-24T07:43:59;7.15;;;2.97;;
45676;SDS011;31390;51.186;6.830;2022-11-24T07:46:26;6.55;;;2.22;;
45676;SDS011;31390;51.186;6.830;2022-11-24T07:48:53;7.32;;;2.22;;
45676;SDS011;31390;51.186;6.830;2022-11-24T07:51:19;4.78;;;1.90;;
45676;SDS011;31390;51.186;6.830;2022-11-24T07:53:46;6.72;;;2.10;;
45676;SDS011;31390;51.186;6.830;2022-11-24T07:56:12;6.03;;;2.00;;
45676;SDS011;31390;51.186;6.830;2022-11-24T07:58:39;8.63;;;2.28;;
45676;SDS011;31390;51.186;6.830;2022-11-24T08:01:12;5.75;;;1.98;;
45676;SDS011;31390;51.186;6.830;2022-11-24T08:03:39;6.70;;;2.42;;
45676;SDS011;31390;51.186;6.830;2022-11-24T08:06:07;6.25;;;2.05;;
45676;SDS011;31390;51.186;6.830;2022-11-24T08:08:51;7.05;;;1.92;;
45676;SDS011;31390;51.186;6.830;2022-11-24T08:11:18;13.68;;;3.03;;
45676;SDS011;31390;51.186;6.830;2022-11-24T08:13:44;4.78;;;1.90;;
45676;SDS011;31390;51.186;6.830;2022-11-24T08:16:12;6.22;;;1.85;;
45676;SDS011;31390;51.186;6.830;2022-11-24T08:18:38;7.38;;;2.15;;
45676;SDS011;31390;51.186;6.830;2022-11-24T08:21:05;7.40;;;2.10;;
45676;SDS011;31390;51.186;6.830;2022-11-24T08:23:32;7.95;;;1.85;;
45676;SDS011;31390;51.186;6.830;2022-11-24T08:26:02;7.38;;;2.75;;
45676;SDS011;31390;51.186;6.830;2022-11-24T08:28:30;9.63;;;2.47;;
45676;SDS011;31390;51.186;6.830;2022-11-24T08:31:05;8.32;;;2.80;;
45676;SDS011;31390;51.186;6.830;2022-11-24T08:33:32;7.72;;;2.40;;
45676;SDS011;31390;51.186;6.830;2022-11-24T08:36:05;7.43;;;2.60;;
45676;SDS011;31390;51.186;6.830;2022-11-24T08:38:33;8.10;;;2.25;;
45676;SDS011;31390;51.186;6.830;2022-11-24T08:41:03;10.57;;;3.40;;
45676;SDS011;31390;51.186;6.830;2022-11-24T08:43:30;11.50;;;2.80;;
45676;SDS011;31390;51.186;6.830;2022-11-24T08:46:00;9.68;;;3.00;;
45676;SDS011;31390;51.186;6.830;2022-11-24T08:48:27;6.90;;;2.60;;
45676;SDS011;31390;51.186;6.830;2022-11-24T08:50:54;11.07;;;3.35;;
45676;SDS011;31390;51.186;6.830;2022-11-24T08:53:21;8.82;;;2.67;;
45676;SDS011;31390;51.186;6.830;2022-11-24T08:55:47;7.18;;;2.50;;
45676;SDS011;31390;51.186;6.830;2022-11-24T08:58:14;10.50;;;3.00;;
45676;SDS011;31390;51.186;6.830;2022-11-24T09:00:42;11.57;;;3.20;;
45676;SDS011;31390;51.186;6.830;2022-11-24T09:03:09;10.57;;;3.10;;
45676;SDS011;31390;51.186;6.830;2022-11-24T09:05:36;10.38;;;2.95;;
45676;SDS011;31390;51.186;6.830;2022-11-24T09:08:18;12.48;;;3.60;;
45676;SDS011;31390;51.186;6.830;2022-11-24T09:10:45;11.57;;;3.47;;
45676;SDS011;31390;51.186;6.830;2022-11-24T09:13:12;13.77;;;3.80;;
45676;SDS011;31390;51.186;6.830;2022-11-24T09:15:39;9.82;;;2.97;;
45676;SDS011;31390;51.186;6.830;2022-11-24T09:18:05;10.45;;;3.05;;
45676;SDS011;31390;51.186;6.830;2022-11-24T09:20:32;10.00;;;3.63;;
45676;SDS011;31390;51.186;6.830;2022-11-24T09:23:01;13.05;;;3.05;;
45676;SDS011;31390;51.186;6.830;2022-11-24T09:25:27;10.73;;;2.97;;
45676;SDS011;31390;51.186;6.830;2022-11-24T09:27:54;11.65;;;3.33;;
45676;SDS011;31390;51.186;6.830;2022-11-24T09:30:21;11.50;;;3.05;;
45676;SDS011;31390;51.186;6.830;2022-11-24T09:32:48;8.68;;;2.92;;
45676;SDS011;31390;51.186;6.830;2022-11-24T09:35:15;13.70;;;3.20;;
45676;SDS011;31390;51.186;6.830;2022-11-24T09:37:41;11.65;;;3.20;;
45676;SDS011;31390;51.186;6.830;2022-11-24T09:40:13;12.45;;;3.55;;
45676;SDS011;31390;51.186;6.830;2022-11-24T09:42:58;13.88;;;3.78;;
45676;SDS011;31390;51.186;6.830;2022-11-24T09:48:32;11.38;;;3.95;;
45676;SDS011;31390;51.186;6.830;2022-11-24T09:51:01;15.20;;;3.70;;
45676;SDS011;31390;51.186;6.830;2022-11-24T09:55:57;10.75;;;3.80;;
45676;SDS011;31390;51.186;6.830;2022-11-24T10:00:53;12.13;;;3.50;;
45676;SDS011;31390;51.186;6.830;2022-11-24T10:03:34;9.90;;;3.17;;
45676;SDS011;31390;51.186;6.830;2022-11-24T10:06:03;11.57;;;3.05;;
45676;SDS011;31390;51.186;6.830;2022-11-24T10:11:01;11.30;;;3.33;;
45676;SDS011;31390;51.186;6.830;2022-11-24T10:18:55;10.05;;;3.35;;
45676;SDS011;31390;51.186;6.830;2022-11-24T10:24:18;13.63;;;3.63;;
45676;SDS011;31390;51.186;6.830;2022-11-24T10:26:50;12.50;;;3.08;;
45676;SDS011;31390;51.186;6.830;2022-11-24T10:29:20;11.73;;;3.47;;
45676;SDS011;31390;51.186;6.830;2022-11-24T10:31:51;12.95;;;3.33;;
45676;SDS011;31390;51.186;6.830;2022-11-24T10:34:24;9.35;;;3.15;;
45676;SDS011;31390;51.186;6.830;2022-11-24T10:36:56;13.10;;;3.65;;
45676;SDS011;31390;51.186;6.830;2022-11-24T10:39:46;11.05;;;3.10;;
45676;SDS011;31390;51.186;6.830;2022-11-24T10:42:33;14.35;;;3.28;;
45676;SDS011;31390;51.186;6.830;2022-11-24T10:44:59;10.68;;;3.83;;
45676;SDS011;31390;51.186;6.830;2022-11-24T10:47:26;13.52;;;3.92;;
45676;SDS011;31390;51.186;6.830;2022-11-24T10:50:00;10.68;;;2.83;;
45676;SDS011;31390;51.186;6.830;2022-11-24T10:52:29;11.82;;;3.10;;
45676;SDS011;31390;51.186;6.830;2022-11-24T10:54:59;14.77;;;3.72;;
45676;SDS011;31390;51.186;6.830;2022-11-24T10:57:27;13.85;;;3.38;;
45676;SDS011;31390;51.186;6.830;2022-11-24T10:59:54;11.57;;;3.40;;
45676;SDS011;31390;51.186;6.830;2022-11-24T11:02:37;13.15;;;3.40;;
45676;SDS011;31390;51.186;6.830;2022-11-24T11:07:49;12.52;;;4.13;;
45676;SDS011;31390;51.186;6.830;2022-11-24T11:10:16;11.13;;;3.58;;
45676;SDS011;31390;51.186;6.830;2022-11-24T11:12:43;8.82;;;3.40;;
45676;SDS011;31390;51.186;6.830;2022-11-24T11:15:24;13.88;;;3.83;;
45676;SDS011;31390;51.186;6.830;2022-11-24T11:17:54;11.05;;;3.28;;
45676;SDS011;31390;51.186;6.830;2022-11-24T11:20:32;14.45;;;3.53;;
45676;SDS011;31390;51.186;6.830;2022-11-24T11:23:21;14.07;;;3.92;;
45676;SDS011;31390;51.186;6.830;2022-11-24T11:25:45;12.45;;;3.58;;
45676;SDS011;31390;51.186;6.830;2022-11-24T11:28:27;13.23;;;3.80;;
45676;SDS011;31390;51.186;6.830;2022-11-24T11:30:55;9.90;;;3.20;;
45676;SDS011;31390;51.186;6.830;2022-11-24T11:33:53;12.13;;;3.30;;
45676;SDS011;31390;51.186;6.830;2022-11-24T11:36:44;14.10;;;3.45;;
45676;SDS011;31390;51.186;6.830;2022-11-24T11:39:30;13.68;;;4.00;;
45676;SDS011;31390;51.186;6.830;2022-11-24T11:42:00;12.95;;;3.53;;
45676;SDS011;31390;51.186;6.830;2022-11-24T11:44:36;10.25;;;2.90;;
45676;SDS011;31390;51.186;6.830;2022-11-24T11:47:18;9.38;;;3.00;;
45676;SDS011;31390;51.186;6.830;2022-11-24T11:49:46;10.88;;;3.25;;
45676;SDS011;31390;51.186;6.830;2022-11-24T11:57:49;12.23;;;3.33;;
45676;SDS011;31390;51.186;6.830;2022-11-24T12:00:19;16.17;;;3.42;;
45676;SDS011;31390;51.186;6.830;2022-11-24T12:08:30;10.75;;;3.13;;
45676;SDS011;31390;51.186;6.830;2022-11-24T12:16:25;13.75;;;3.72;;
45676;SDS011;31390;51.186;6.830;2022-11-24T12:21:31;9.82;;;3.10;;
45676;SDS011;31390;51.186;6.830;2022-11-24T12:26:44;9.90;;;3.08;;
45676;SDS011;31390;51.186;6.830;2022-11-24T12:34:22;12.63;;;3.38;;
45676;SDS011;31390;51.186;6.830;2022-11-24T12:39:44;11.65;;;4.18;;
45676;SDS011;31390;51.186;6.830;2022-11-24T12:45:00;12.00;;;3.53;;
45676;SDS011;31390;51.186;6.830;2022-11-24T12:50:17;12.10;;;3.72;;
45676;SDS011;31390;51.186;6.830;2022-11-24T12:55:20;9.07;;;2.60;;
45676;SDS011;31390;51.186;6.830;2022-11-24T13:00:26;11.32;;;3.15;;
45676;SDS011;31390;51.186;6.830;2022-11-24T13:05:32;14.63;;;4.03;;
45676;SDS011;31390;51.186;6.830;2022-11-24T13:08:03;11.25;;;3.72;;
45676;SDS011;31390;51.186;6.830;2022-11-24T13:10:31;14.15;;;3.47;;
45676;SDS011;31390;51.186;6.830;2022-11-24T13:13:18;10.57;;;3.92;;
45676;SDS011;31390;51.186;6.830;2022-11-24T13:18:42;12.82;;;3.95;;
45676;SDS011;31390;51.186;6.830;2022-11-24T13:23:58;14.02;;;4.07;;
45676;SDS011;31390;51.186;6.830;2022-11-24T13:26:29;13.77;;;3.70;;
45676;SDS011;31390;51.186;6.830;2022-11-24T13:29:00;14.25;;;4.82;;
45676;SDS011;31390;51.186;6.830;2022-11-24T13:31:47;13.75;;;4.03;;
45676;SDS011;31390;51.186;6.830;2022-11-24T13:35:01;12.35;;;4.05;;
45676;SDS011;31390;51.186;6.830;2022-11-24T13:37:47;12.88;;;3.42;;
45676;SDS011;31390;51.186;6.830;2022-11-24T13:40:02;13.00;;;3.88;;
45676;SDS011;31390;51.186;6.830;2022-11-24T13:55:51;12.95;;;4.43;;
45676;SDS011;31390;51.186;6.830;2022-11-24T14:01:12;12.88;;;3.92;;
45676;SDS011;31390;51.186;6.830;2022-11-24T14:07:15;14.20;;;3.85;;
45676;SDS011;31390;51.186;6.830;2022-11-24T14:11:43;17.33;;;4.13;;
45676;SDS011;31390;51.186;6.830;2022-11-24T14:14:12;15.10;;;4.47;;
45676;SDS011;31390;51.186;6.830;2022-11-24T14:16:46;11.50;;;3.13;;
45676;SDS011;31390;51.186;6.830;2022-11-24T14:19:16;9.10;;;3.53;;
45676;SDS011;31390;51.186;6.830;2022-11-24T14:21:45;14.20;;;4.15;;
45676;SDS011;31390;51.186;6.830;2022-11-24T14:24:22;13.15;;;3.92;;
45676;SDS011;31390;51.186;6.830;2022-11-24T14:26:49;10.57;;;3.42;;
45676;SDS011;31390;51.186;6.830;2022-11-24T14:29:19;16.48;;;3.40;;
45676;SDS011;31390;51.186;6.830;2022-11-24T14:31:56;25.42;;;5.85;;
45676;SDS011;31390;51.186;6.830;2022-11-24T14:34:24;12.77;;;4.25;;
45676;SDS011;31390;51.186;6.830;2022-11-24T14:36:51;10.13;;;3.88;;
45676;SDS011;31390;51.186;6.830;2022-11-24T14:39:20;12.25;;;4.80;;
45676;SDS011;31390;51.186;6.830;2022-11-24T14:41:51;18.60;;;6.20;;
45676;SDS011;31390;51.186;6.830;2022-11-24T14:44:19;16.90;;;5.82;;
45676;SDS011;31390;51.186;6.830;2022-11-24T14:46:46;14.73;;;4.78;;
45676;SDS011;31390;51.186;6.830;2022-11-24T14:49:17;15.88;;;4.65;;
45676;SDS011;31390;51.186;6.830;2022-11-24T14:51:48;16.17;;;4.30;;
45676;SDS011;31390;51.186;6.830;2022-11-24T14:54:17;11.00;;;4.30;;
45676;SDS011;31390;51.186;6.830;2022-11-24T14:56:58;10.32;;;4.75;;
45676;SDS011;31390;51.186;6.830;2022-11-24T14:59:26;13.60;;;4.43;;
45676;SDS011;31390;51.186;6.830;2022-11-24T15:01:53;14.05;;;4.78;;
45676;SDS011;31390;51.186;6.830;2022-11-24T15:04:23;11.77;;;4.40;;
45676;SDS011;31390;51.186;6.830;2022-11-24T15:07:15;15.15;;;4.60;;
45676;SDS011;31390;51.186;6.830;2022-11-24T15:12:22;17.77;;;6.03;;
45676;SDS011;31390;51.186;6.830;2022-11-24T15:14:52;12.23;;;5.15;;
45676;SDS011;31390;51.186;6.830;2022-11-24T15:17:24;17.38;;;5.35;;
45676;SDS011;31390;51.186;6.830;2022-11-24T15:19:53;12.13;;;4.93;;
45676;SDS011;31390;51.186;6.830;2022-11-24T15:24:56;16.83;;;6.55;;
45676;SDS011;31390;51.186;6.830;2022-11-24T15:27:23;13.57;;;5.50;;
45676;SDS011;31390;51.186;6.830;2022-11-24T15:29:49;17.20;;;6.25;;
45676;SDS011;31390;51.186;6.830;2022-11-24T15:32:15;13.20;;;6.22;;
45676;SDS011;31390;51.186;6.830;2022-11-24T15:34:42;17.17;;;8.38;;
45676;SDS011;31390;51.186;6.830;2022-11-24T15:37:09;18.30;;;7.80;;
45676;SDS011;31390;51.186;6.830;2022-11-24T15:39:35;21.42;;;9.07;;
45676;SDS011;31390;51.186;6.830;2022-11-24T15:42:02;17.92;;;7.18;;
45676;SDS011;31390;51.186;6.830;2022-11-24T15:44:28;14.48;;;6.95;;
45676;SDS011;31390;51.186;6.830;2022-11-24T15:46:55;11.90;;;5.55;;
45676;SDS011;31390;51.186;6.830;2022-11-24T15:49:21;17.92;;;7.53;;
45676;SDS011;31390;51.186;6.830;2022-11-24T15:51:48;22.33;;;6.25;;
45676;SDS011;31390;51.186;6.830;2022-11-24T15:54:15;13.57;;;5.45;;
45676;SDS011;31390;51.186;6.830;2022-11-24T15:56:42;12.38;;;4.63;;
45676;SDS011;31390;51.186;6.830;2022-11-24T15:59:13;10.48;;;5.05;;
45676;SDS011;31390;51.186;6.830;2022-11-24T16:01:46;16.15;;;5.85;;
45676;SDS011;31390;51.186;6.830;2022-11-24T16:04:15;15.10;;;5.60;;
45676;SDS011;31390;51.186;6.830;2022-11-24T16:06:41;14.18;;;5.47;;
45676;SDS011;31390;51.186;6.830;2022-11-24T16:09:11;12.65;;;4.78;;
45676;SDS011;31390;51.186;6.830;2022-11-24T16:11:39;15.80;;;5.22;;
45676;SDS011;31390;51.186;6.830;2022-11-24T16:14:05;16.25;;;4.72;;
45676;SDS011;31390;51.186;6.830;2022-11-24T16:16:32;12.20;;;4.03;;
45676;SDS011;31390;51.186;6.830;2022-11-24T16:18:59;18.85;;;6.10;;
45676;SDS011;31390;51.186;6.830;2022-11-24T16:21:25;22.40;;;12.18;;
45676;SDS011;31390;51.186;6.830;2022-11-24T16:23:52;22.92;;;15.07;;
45676;SDS011;31390;51.186;6.830;2022-11-24T16:26:19;20.80;;;13.27;;